createdAt,value
2022-11-25T00:00:54.303Z,15.60
2022-11-25T00:03:20.720Z,15.17
2022-11-25T00:05:46.951Z,14.07
2022-11-25T00:08:13.436Z,15.10
2022-11-25T00:10:39.682Z,14.47
2022-11-25T00:13:05.898Z,14.70
2022-11-25T00:15:33.571Z,14.83
2022-11-25T00:17:59.825Z,15.23
2022-11-25T00:20:26.045Z,15.30
2022-11-25T00:22:52.270Z,15.30
2022-11-25T00:25:18.508Z,15.47
2022-11-25T00:27:44.719Z,14.67
2022-11-25T00:30:11.147Z,15.30
2022-11-25T00:32:37.385Z,15.13
2022-11-25T00:35:03.766Z,15.83
2022-11-25T00:37:31.700Z,15.17
2022-11-25T00:39:57.917Z,15.80
2022-11-25T00:42:43.258Z,15.30
2022-11-25T00:45:09.618Z,16.33
2022-11-25T00:47:35.837Z,16.57
2022-11-25T00:50:02.103Z,15.87
2022-11-25T00:52:28.368Z,16.10
2022-11-25T00:54:54.668Z,16.57
2022-11-25T00:57:22.056Z,16.63
2022-11-25T00:59:48.810Z,16.40
2022-11-25T01:02:15.986Z,17.33
2022-11-25T01:04:42.460Z,15.83
2022-11-25T01:07:08.731Z,17.53
2022-11-25T01:09:34.992Z,16.20
2022-11-25T01:12:01.343Z,17.03
2022-11-25T01:14:27.578Z,17.30
2022-11-25T01:16:53.919Z,17.07
2022-11-25T01:19:20.494Z,17.10
2022-11-25T01:21:47.012Z,16.83
2022-11-25T01:24:14.491Z,16.93
2022-11-25T01:26:40.779Z,17.40
2022-11-25T01:29:08.112Z,17.37
2022-11-25T01:31:35.958Z,17.30
2022-11-25T01:34:11.199Z,18.17
2022-11-25T01:36:37.477Z,17.47
2022-11-25T01:39:04.149Z,17.70
2022-11-25T01:41:31.109Z,17.60
2022-11-25T01:44:08.241Z,17.83
2022-11-25T01:46:43.622Z,19.77
2022-11-25T01:49:14.563Z,19.67
2022-11-25T01:51:44.026Z,19.10
2022-11-25T01:54:11.710Z,19.37
2022-11-25T01:56:41.870Z,20.80
2022-11-25T01:59:08.127Z,21.43
2022-11-25T02:01:34.606Z,21.73
2022-11-25T02:04:01.069Z,21.23
2022-11-25T02:06:29.256Z,21.93
2022-11-25T02:08:59.495Z,21.73
2022-11-25T02:11:26.925Z,23.20
2022-11-25T02:13:53.581Z,22.07
2022-11-25T02:16:19.810Z,23.63
2022-11-25T02:18:46.165Z,23.47
2022-11-25T02:21:15.316Z,23.77
2022-11-25T02:23:51.290Z,23.47
2022-11-25T02:26:17.859Z,24.07
2022-11-25T02:28:44.765Z,23.97
2022-11-25T02:31:10.993Z,23.47
2022-11-25T02:33:37.353Z,24.43
2022-11-25T02:36:10.612Z,24.27
2022-11-25T02:38:44.300Z,24.37
2022-11-25T02:41:13.349Z,23.37
2022-11-25T02:43:40.191Z,24.00
2022-11-25T02:46:06.566Z,24.13
2022-11-25T02:49:06.803Z,22.33
2022-11-25T02:51:22.587Z,21.07
2022-11-25T02:53:49.141Z,22.47
2022-11-25T02:56:16.148Z,20.90
2022-11-25T02:58:42.403Z,22.50
2022-11-25T03:01:09.301Z,21.37
2022-11-25T03:03:35.894Z,22.23
2022-11-25T03:06:02.411Z,21.93
2022-11-25T03:08:28.658Z,21.70
2022-11-25T03:10:54.879Z,21.13
2022-11-25T03:13:22.520Z,21.63
2022-11-25T03:15:48.754Z,22.00
2022-11-25T03:18:15.013Z,21.57
2022-11-25T03:20:41.258Z,20.20
2022-11-25T03:23:07.595Z,19.30
2022-11-25T03:25:34.759Z,19.17
2022-11-25T03:28:01.097Z,18.80
2022-11-25T03:30:29.021Z,18.43
2022-11-25T03:32:55.523Z,18.10
2022-11-25T03:35:21.749Z,17.53
2022-11-25T03:37:47.966Z,17.23
2022-11-25T03:40:15.161Z,17.13
2022-11-25T03:42:41.483Z,16.47
2022-11-25T03:45:08.770Z,17.40
2022-11-25T03:47:34.969Z,16.83
2022-11-25T03:50:01.206Z,17.50
2022-11-25T03:52:27.424Z,18.27
2022-11-25T03:54:53.646Z,18.33
2022-11-25T03:57:19.849Z,18.53
2022-11-25T03:59:46.070Z,17.40
2022-11-25T04:02:12.352Z,16.50
2022-11-25T04:04:38.760Z,16.43
2022-11-25T04:07:05.038Z,16.80
2022-11-25T04:09:31.264Z,17.57
2022-11-25T04:12:16.412Z,18.23
2022-11-25T04:14:42.642Z,16.47
2022-11-25T04:17:08.978Z,16.77
2022-11-25T04:19:35.247Z,16.93
2022-11-25T04:22:02.751Z,16.70
2022-11-25T04:24:28.986Z,16.13
2022-11-25T04:26:55.195Z,15.40
2022-11-25T04:29:21.662Z,15.87
2022-11-25T04:31:47.893Z,15.83
2022-11-25T04:34:14.290Z,15.57
2022-11-25T04:36:41.502Z,15.77
2022-11-25T04:39:07.820Z,15.57
2022-11-25T04:41:34.032Z,15.70
2022-11-25T04:44:00.298Z,15.60
2022-11-25T04:46:30.467Z,14.97
2022-11-25T04:48:56.787Z,16.07
2022-11-25T04:51:22.990Z,15.33
2022-11-25T04:53:49.225Z,15.77
2022-11-25T04:56:19.174Z,15.67
2022-11-25T04:59:04.233Z,17.80
2022-11-25T05:01:30.658Z,17.20
2022-11-25T05:03:59.998Z,17.40
2022-11-25T05:06:26.294Z,16.90
2022-11-25T05:08:52.571Z,16.17
2022-11-25T05:11:18.834Z,17.83
2022-11-25T05:13:45.067Z,17.00
2022-11-25T05:16:11.432Z,16.90
2022-11-25T05:18:37.695Z,18.43
2022-11-25T05:21:04.601Z,18.63
2022-11-25T05:23:30.962Z,18.80
2022-11-25T05:26:03.811Z,19.17
2022-11-25T05:28:30.514Z,19.93
2022-11-25T05:30:57.135Z,18.93
2022-11-25T05:33:23.861Z,18.63
2022-11-25T05:35:53.990Z,18.87
2022-11-25T05:38:20.213Z,18.30
2022-11-25T05:40:46.420Z,19.07
2022-11-25T05:43:12.650Z,18.43
2022-11-25T05:45:39.334Z,17.57
2022-11-25T05:48:05.698Z,16.50
2022-11-25T05:50:31.921Z,18.47
2022-11-25T05:52:58.146Z,17.90
2022-11-25T05:55:24.353Z,17.17
2022-11-25T05:57:50.577Z,17.30
2022-11-25T06:00:16.948Z,18.03
2022-11-25T06:02:43.235Z,19.33
2022-11-25T06:05:09.563Z,18.73
2022-11-25T06:07:35.831Z,19.60
2022-11-25T06:10:03.473Z,19.50
2022-11-25T06:12:29.879Z,19.70
2022-11-25T06:14:56.107Z,19.63
2022-11-25T06:17:22.344Z,19.57
2022-11-25T06:19:48.582Z,20.97
2022-11-25T06:22:14.814Z,19.17
2022-11-25T06:24:41.065Z,19.70
2022-11-25T06:27:07.277Z,20.03
2022-11-25T06:29:33.551Z,19.90
2022-11-25T06:31:59.762Z,19.30
2022-11-25T06:34:26.088Z,20.43
2022-11-25T06:36:52.290Z,18.37
2022-11-25T06:39:18.546Z,18.73
2022-11-25T06:41:45.394Z,19.63
2022-11-25T06:44:11.605Z,19.40
2022-11-25T06:46:37.900Z,19.73
2022-11-25T06:49:05.508Z,19.30
2022-11-25T06:51:31.747Z,20.03
2022-11-25T06:53:58.019Z,19.03
2022-11-25T06:56:25.930Z,19.90
2022-11-25T06:58:52.686Z,19.47
2022-11-25T07:01:20.629Z,18.47
2022-11-25T07:03:47.754Z,19.40
2022-11-25T07:06:15.153Z,18.80
2022-11-25T07:08:41.628Z,18.63
2022-11-25T07:11:10.310Z,18.87
2022-11-25T07:13:36.547Z,19.10
2022-11-25T07:16:03.701Z,18.57
2022-11-25T07:18:31.690Z,18.10
2022-11-25T07:21:01.776Z,18.93
2022-11-25T07:23:28.001Z,19.17
2022-11-25T07:25:54.255Z,18.20
2022-11-25T07:28:20.465Z,19.33
2022-11-25T07:33:33.043Z,17.87
2022-11-25T07:36:03.350Z,18.97
2022-11-25T07:38:29.581Z,19.10
2022-11-25T07:40:55.808Z,19.00
2022-11-25T07:43:22.467Z,18.97
2022-11-25T07:45:48.694Z,18.47
2022-11-25T07:48:14.906Z,19.17
2022-11-25T07:50:41.208Z,18.13
2022-11-25T07:53:07.434Z,17.93
2022-11-25T07:55:33.667Z,19.20
2022-11-25T07:57:59.887Z,18.67
2022-11-25T08:00:27.199Z,17.03
2022-11-25T08:02:53.575Z,18.00
2022-11-25T08:05:19.934Z,18.00
2022-11-25T08:07:46.209Z,18.17
2022-11-25T08:10:12.548Z,18.13
2022-11-25T08:12:38.793Z,18.73
2022-11-25T08:15:05.243Z,18.00
2022-11-25T08:17:31.671Z,17.83
2022-11-25T08:19:57.885Z,18.37
2022-11-25T08:22:24.105Z,18.53
2022-11-25T08:24:50.321Z,18.30
2022-11-25T08:27:16.550Z,18.33
2022-11-25T08:29:42.794Z,16.57
2022-11-25T08:32:11.992Z,17.57
2022-11-25T08:34:38.450Z,17.57
2022-11-25T08:37:04.676Z,17.97
2022-11-25T08:42:17.251Z,17.80
2022-11-25T08:44:43.504Z,16.27
2022-11-25T08:47:10.156Z,15.93
2022-11-25T08:49:41.300Z,15.63
2022-11-25T08:52:08.795Z,14.87
2022-11-25T08:54:35.085Z,15.27
2022-11-25T08:57:01.336Z,14.63
2022-11-25T08:59:27.649Z,13.90
2022-11-25T09:01:54.045Z,13.60
2022-11-25T09:04:20.397Z,17.43
2022-11-25T09:06:46.684Z,17.70
2022-11-25T09:09:12.915Z,17.93
2022-11-25T09:11:39.264Z,17.37
2022-11-25T09:14:05.728Z,17.13
2022-11-25T09:16:32.139Z,18.20
2022-11-25T09:18:59.989Z,18.27
2022-11-25T09:21:26.233Z,17.50
2022-11-25T09:23:53.914Z,17.60
2022-11-25T09:26:25.084Z,17.67
2022-11-25T09:28:51.706Z,17.27
2022-11-25T09:31:18.268Z,15.77
2022-11-25T09:33:45.179Z,15.67
2022-11-25T09:36:12.313Z,16.73
2022-11-25T09:38:42.990Z,14.93
2022-11-25T09:41:38.647Z,15.47
2022-11-25T09:44:27.533Z,14.77
2022-11-25T09:47:02.547Z,14.97
2022-11-25T09:49:47.788Z,14.13
2022-11-25T09:52:32.946Z,13.90
2022-11-25T09:55:05.537Z,13.97
2022-11-25T09:57:41.683Z,15.83
2022-11-25T10:00:14.367Z,15.40
2022-11-25T10:02:52.836Z,15.53
2022-11-25T10:05:24.693Z,15.00
2022-11-25T10:07:52.842Z,14.27
2022-11-25T10:10:40.797Z,14.57
2022-11-25T10:13:14.124Z,14.07
2022-11-25T10:15:43.514Z,14.10
2022-11-25T10:18:27.271Z,13.27
2022-11-25T10:20:53.962Z,12.73
2022-11-25T10:23:33.905Z,13.60
2022-11-25T10:26:02.643Z,13.33
2022-11-25T10:28:32.900Z,13.27
2022-11-25T10:30:59.174Z,13.80
2022-11-25T10:33:30.521Z,13.30
2022-11-25T10:36:15.415Z,13.77
2022-11-25T10:38:45.364Z,12.80
2022-11-25T10:41:15.268Z,13.23
2022-11-25T10:43:41.925Z,14.00
2022-11-25T10:46:11.392Z,14.43
2022-11-25T10:49:07.056Z,13.93
2022-11-25T10:51:49.550Z,13.57
2022-11-25T10:54:25.561Z,14.10
2022-11-25T10:57:01.176Z,14.73
2022-11-25T10:59:29.351Z,15.13
2022-11-25T11:02:13.062Z,15.40
2022-11-25T11:04:50.878Z,16.07
2022-11-25T11:07:17.139Z,15.80
2022-11-25T11:09:43.451Z,14.43
2022-11-25T11:12:14.608Z,15.03
2022-11-25T11:14:41.178Z,15.23
2022-11-25T11:17:20.213Z,14.70
2022-11-25T11:19:59.506Z,13.73
2022-11-25T11:22:26.754Z,14.60
2022-11-25T11:25:05.566Z,14.60
2022-11-25T11:27:36.403Z,13.53
2022-11-25T11:30:10.139Z,14.10
2022-11-25T11:32:36.985Z,12.90
2022-11-25T11:35:20.990Z,13.33
2022-11-25T11:37:52.887Z,13.77
2022-11-25T11:40:39.491Z,13.60
2022-11-25T11:43:05.692Z,13.27
2022-11-25T11:45:45.222Z,13.07
2022-11-25T11:48:24.932Z,13.77
2022-11-25T11:50:52.727Z,13.50
2022-11-25T11:53:23.024Z,14.10
2022-11-25T11:56:19.098Z,15.73
2022-11-25T11:59:00.434Z,15.87
2022-11-25T12:01:36.148Z,15.77
2022-11-25T12:04:18.874Z,16.87
2022-11-25T12:06:48.279Z,18.00
2022-11-25T12:09:18.565Z,17.43
2022-11-25T12:11:48.270Z,19.10
2022-11-25T12:14:35.416Z,19.17
2022-11-25T12:17:05.941Z,20.07
2022-11-25T12:19:52.234Z,20.80
2022-11-25T12:22:21.481Z,20.23
2022-11-25T12:24:50.953Z,21.07
2022-11-25T12:27:19.931Z,20.43
2022-11-25T12:30:04.674Z,23.17
2022-11-25T12:32:44.235Z,22.23
2022-11-25T12:35:10.454Z,23.30
2022-11-25T12:37:45.579Z,22.23
2022-11-25T12:40:16.373Z,22.03
2022-11-25T12:42:44.004Z,21.47
2022-11-25T12:45:15.683Z,22.03
2022-11-25T12:47:42.663Z,23.13
2022-11-25T12:50:14.257Z,21.47
2022-11-25T12:52:40.515Z,20.20
2022-11-25T12:55:13.459Z,19.63
2022-11-25T12:57:49.507Z,20.27
2022-11-25T13:00:41.083Z,19.10
2022-11-25T13:03:20.807Z,18.97
2022-11-25T13:05:53.145Z,19.37
2022-11-25T13:08:30.770Z,19.50
2022-11-25T13:11:16.100Z,18.33
2022-11-25T13:14:02.598Z,18.97
2022-11-25T13:16:29.804Z,18.53
2022-11-25T13:18:56.541Z,19.13
2022-11-25T13:21:25.747Z,19.00
2022-11-25T13:23:58.801Z,17.47
2022-11-25T13:26:36.159Z,17.57
2022-11-25T13:29:14.557Z,17.80
2022-11-25T13:31:59.993Z,18.30
2022-11-25T13:34:30.539Z,17.63
2022-11-25T13:36:57.826Z,17.80
2022-11-25T13:39:24.023Z,18.20
2022-11-25T13:41:58.595Z,21.60
2022-11-25T13:44:28.233Z,21.50
2022-11-25T13:46:56.299Z,21.87
2022-11-25T13:49:22.516Z,22.33
2022-11-25T13:51:50.510Z,22.07
2022-11-25T13:54:17.775Z,22.37
2022-11-25T13:56:44.039Z,21.77
2022-11-25T13:59:10.309Z,21.93
2022-11-25T14:01:37.444Z,21.53
2022-11-25T14:04:11.202Z,20.43
2022-11-25T14:06:57.377Z,21.83
2022-11-25T14:09:37.851Z,21.83
2022-11-25T14:12:11.153Z,21.93
2022-11-25T14:14:49.778Z,21.93
2022-11-25T14:17:35.494Z,24.20
2022-11-25T14:20:05.187Z,22.87
2022-11-25T14:22:43.890Z,22.83
2022-11-25T14:25:14.951Z,22.30
2022-11-25T14:27:45.657Z,23.17
2022-11-25T14:30:12.242Z,22.83
2022-11-25T14:32:38.811Z,24.00
2022-11-25T14:35:15.582Z,24.80
2022-11-25T14:37:48.111Z,25.40
2022-11-25T14:40:18.562Z,24.60
2022-11-25T14:42:46.130Z,25.87
2022-11-25T14:45:23.164Z,24.50
2022-11-25T14:47:49.473Z,24.20
2022-11-25T14:50:34.103Z,23.07
2022-11-25T14:53:00.789Z,23.03
2022-11-25T14:55:28.476Z,23.73
2022-11-25T14:57:55.187Z,22.70
2022-11-25T15:00:21.728Z,21.87
2022-11-25T15:02:57.200Z,21.33
2022-11-25T15:05:26.082Z,22.17
2022-11-25T15:08:03.713Z,20.37
2022-11-25T15:10:29.994Z,22.23
2022-11-25T15:12:56.289Z,21.63
2022-11-25T15:15:22.510Z,21.63
2022-11-25T15:17:48.901Z,21.90
2022-11-25T15:20:17.438Z,20.60
2022-11-25T15:22:47.514Z,21.63
2022-11-25T15:25:15.145Z,22.77
2022-11-25T15:27:45.247Z,22.13
2022-11-25T15:30:29.124Z,21.63
2022-11-25T15:32:56.241Z,22.03
2022-11-25T15:35:24.115Z,20.97
2022-11-25T15:37:50.400Z,21.27
2022-11-25T15:40:38.271Z,21.83
2022-11-25T15:43:06.086Z,22.33
2022-11-25T15:45:36.489Z,22.13
2022-11-25T15:48:03.452Z,21.60
2022-11-25T15:50:31.632Z,22.30
2022-11-25T15:52:59.716Z,23.47
2022-11-25T15:55:30.773Z,22.07
2022-11-25T15:58:01.927Z,21.63
2022-11-25T16:00:28.350Z,22.07
2022-11-25T16:02:55.438Z,21.47
2022-11-25T16:05:29.065Z,22.97
2022-11-25T16:07:59.869Z,21.97
2022-11-25T16:10:28.079Z,22.43
2022-11-25T16:13:18.081Z,23.93
2022-11-25T16:15:55.583Z,22.13
2022-11-25T16:18:39.881Z,21.70
2022-11-25T16:21:26.863Z,21.73
2022-11-25T16:23:56.202Z,21.67
2022-11-25T16:26:29.415Z,22.13
2022-11-25T16:28:57.113Z,20.70
2022-11-25T16:31:23.596Z,21.57
2022-11-25T16:33:52.668Z,21.33
2022-11-25T16:36:18.886Z,20.40
2022-11-25T16:38:45.119Z,21.70
2022-11-25T16:41:18.423Z,21.00
2022-11-25T16:43:44.715Z,21.47
2022-11-25T16:46:14.055Z,19.50
2022-11-25T16:48:40.351Z,21.13
2022-11-25T16:51:16.719Z,21.83
2022-11-25T16:53:44.022Z,21.90
2022-11-25T16:56:15.323Z,19.90
2022-11-25T16:58:42.271Z,20.83
2022-11-25T17:01:16.093Z,20.63
2022-11-25T17:03:42.744Z,20.20
2022-11-25T17:06:18.488Z,20.87
2022-11-25T17:08:47.775Z,20.30
2022-11-25T17:11:22.943Z,20.53
2022-11-25T17:13:50.757Z,19.47
2022-11-25T17:16:18.761Z,20.13
2022-11-25T17:18:45.261Z,19.50
2022-11-25T17:21:13.350Z,20.17
2022-11-25T17:23:42.505Z,20.60
2022-11-25T17:26:31.582Z,20.03
2022-11-25T17:28:58.793Z,20.10
2022-11-25T17:31:26.962Z,19.67
2022-11-25T17:33:53.305Z,19.77
2022-11-25T17:36:19.719Z,19.40
2022-11-25T17:38:46.088Z,20.13
2022-11-25T17:41:20.994Z,20.23
2022-11-25T17:43:48.718Z,18.73
2022-11-25T17:46:16.176Z,18.47
2022-11-25T17:48:42.733Z,20.53
2022-11-25T17:51:09.906Z,19.13
2022-11-25T17:53:39.726Z,20.03
2022-11-25T17:56:20.948Z,19.10
2022-11-25T17:58:47.210Z,19.60
2022-11-25T18:01:13.539Z,17.83
2022-11-25T18:03:39.896Z,19.03
2022-11-25T18:06:06.599Z,18.37
2022-11-25T18:08:32.881Z,16.83
2022-11-25T18:11:00.457Z,18.13
2022-11-25T18:13:27.996Z,18.50
2022-11-25T18:15:54.822Z,18.00
2022-11-25T18:18:22.522Z,17.00
2022-11-25T18:20:48.810Z,18.23
2022-11-25T18:23:15.070Z,16.20
2022-11-25T18:25:41.700Z,16.50
2022-11-25T18:28:08.000Z,16.30
2022-11-25T18:30:35.480Z,17.07
2022-11-25T18:33:01.909Z,15.83
2022-11-25T18:35:35.831Z,17.20
2022-11-25T18:38:03.089Z,16.43
2022-11-25T18:40:29.402Z,15.73
2022-11-25T18:42:57.030Z,15.93
2022-11-25T18:45:27.552Z,14.07
2022-11-25T18:47:54.129Z,14.83
2022-11-25T18:50:21.754Z,13.97
2022-11-25T18:52:48.459Z,14.07
2022-11-25T18:55:15.959Z,15.30
2022-11-25T18:57:45.683Z,15.13
2022-11-25T19:03:00.310Z,14.40
2022-11-25T19:05:29.313Z,14.77
2022-11-25T19:07:58.462Z,14.27
2022-11-25T19:10:26.869Z,14.60
2022-11-25T19:12:55.817Z,13.47
2022-11-25T19:15:23.679Z,13.83
2022-11-25T19:17:51.854Z,14.17
2022-11-25T19:20:19.543Z,13.17
2022-11-25T19:22:45.943Z,14.10
2022-11-25T19:25:12.381Z,12.87
2022-11-25T19:27:47.194Z,14.30
2022-11-25T19:30:18.024Z,12.00
2022-11-25T19:32:45.537Z,12.97
2022-11-25T19:35:14.342Z,12.27
2022-11-25T19:37:40.590Z,13.10
2022-11-25T19:40:12.783Z,12.90
2022-11-25T19:42:39.043Z,12.93
2022-11-25T19:45:05.466Z,12.47
2022-11-25T19:47:31.703Z,13.10
2022-11-25T19:50:00.269Z,13.03
2022-11-25T19:52:37.946Z,12.57
2022-11-25T19:55:12.726Z,13.57
2022-11-25T19:57:38.973Z,13.33
2022-11-25T20:00:05.782Z,12.23
2022-11-25T20:02:32.177Z,12.53
2022-11-25T20:04:58.426Z,12.13
2022-11-25T20:07:25.798Z,13.10
2022-11-25T20:09:52.116Z,13.00
2022-11-25T20:12:21.024Z,12.67
2022-11-25T20:14:47.637Z,12.50
2022-11-25T20:17:20.236Z,13.17
2022-11-25T20:19:46.509Z,12.60
2022-11-25T20:22:17.856Z,12.60
2022-11-25T20:24:44.450Z,12.37
2022-11-25T20:27:12.157Z,11.70
2022-11-25T20:29:38.622Z,12.37
2022-11-25T20:32:18.337Z,12.10
2022-11-25T20:34:44.944Z,11.83
2022-11-25T20:37:13.961Z,12.67
2022-11-25T20:39:41.909Z,10.60
2022-11-25T20:42:09.365Z,11.33
2022-11-25T20:44:35.831Z,11.90
2022-11-25T20:47:02.254Z,11.20
2022-11-25T20:49:29.229Z,11.87
2022-11-25T20:51:56.181Z,12.20
2022-11-25T20:54:25.531Z,10.70
2022-11-25T20:56:51.811Z,11.23
2022-11-25T20:59:22.423Z,11.23
2022-11-25T21:01:53.491Z,11.27
2022-11-25T21:04:20.213Z,11.53
2022-11-25T21:06:46.591Z,11.00
2022-11-25T21:09:20.971Z,10.17
2022-11-25T21:11:47.603Z,11.07
2022-11-25T21:14:15.083Z,10.57
2022-11-25T21:16:41.362Z,10.40
2022-11-25T21:19:07.666Z,11.43
2022-11-25T21:21:35.746Z,10.50
2022-11-25T21:24:20.565Z,10.83
2022-11-25T21:26:46.818Z,10.23
2022-11-25T21:29:16.967Z,10.77
2022-11-25T21:31:43.627Z,11.43
2022-11-25T21:34:13.306Z,10.07
2022-11-25T21:36:40.487Z,9.97
2022-11-25T21:39:08.441Z,10.50
2022-11-25T21:41:35.154Z,10.07
2022-11-25T21:44:02.909Z,10.23
2022-11-25T21:46:29.199Z,10.27
2022-11-25T21:48:55.548Z,10.20
2022-11-25T21:51:24.067Z,10.60
2022-11-25T21:53:50.958Z,10.27
2022-11-25T21:56:23.330Z,10.40
2022-11-25T21:58:49.578Z,9.90
2022-11-25T22:01:16.585Z,11.03
2022-11-25T22:03:43.112Z,10.33
2022-11-25T22:06:38.570Z,9.87
2022-11-25T22:09:04.856Z,10.63
2022-11-25T22:11:32.481Z,10.73
2022-11-25T22:13:59.566Z,9.83
2022-11-25T22:16:30.835Z,9.70
2022-11-25T22:18:57.616Z,10.30
2022-11-25T22:21:24.034Z,10.20
2022-11-25T22:23:50.485Z,9.63
2022-11-25T22:26:26.054Z,10.20
2022-11-25T22:28:52.862Z,10.50
2022-11-25T22:31:19.853Z,9.73
2022-11-25T22:33:46.455Z,10.17
2022-11-25T22:36:41.970Z,9.80
2022-11-25T22:39:13.229Z,9.27
2022-11-25T22:41:39.684Z,9.43
2022-11-25T22:44:06.104Z,9.33
2022-11-25T22:46:33.694Z,9.23
2022-11-25T22:48:59.946Z,9.30
2022-11-25T22:51:26.621Z,9.47
2022-11-25T22:53:52.872Z,9.73
2022-11-25T22:56:19.539Z,9.60
2022-11-25T22:58:46.230Z,10.23
2022-11-25T23:01:16.832Z,9.30
2022-11-25T23:03:43.663Z,10.23
2022-11-25T23:06:12.910Z,10.33
2022-11-25T23:08:39.402Z,10.60
2022-11-25T23:11:06.144Z,10.40
2022-11-25T23:13:32.408Z,10.63
2022-11-25T23:15:59.628Z,10.03
2022-11-25T23:18:26.195Z,11.03
2022-11-25T23:20:52.668Z,11.47
2022-11-25T23:23:20.287Z,12.00
2022-11-25T23:25:47.186Z,12.67
2022-11-25T23:28:13.629Z,12.23
2022-11-25T23:30:47.341Z,13.17
2022-11-25T23:33:34.141Z,13.00
2022-11-25T23:36:03.669Z,12.77
2022-11-25T23:38:34.456Z,13.13
2022-11-25T23:41:00.693Z,13.17
2022-11-25T23:43:26.918Z,13.30
2022-11-25T23:45:54.526Z,13.13
2022-11-25T23:48:22.478Z,13.47
2022-11-25T23:50:48.987Z,13.37
2022-11-25T23:53:21.094Z,14.70
2022-11-25T23:55:47.497Z,13.60
2022-11-25T23:58:14.861Z,13.80
